Time;durP1;ratioP1;P1;durP2;ratioP2;P2;SDS_P1;SDS_P2;PMS_P1;PMS_P2;Temp;Humidity;BMP_temperature;BMP_pressure;BME280_temperature;BME280_humidity;BME280_pressure;Samples;Min_cycle;Max_cycle;Signal;HPM_P1;HPM_P2
2022/08/10 00:01:34;;;;;;;1.60;1.25;;;20.90;81.30;;;;;;10405988;28;20026;-69
2022/08/10 00:06:35;;;;;;;1.55;1.13;;;20.90;81.30;;;;;;10406513;28;20034;-68
2022/08/10 00:11:36;;;;;;;1.00;1.00;;;20.90;81.30;;;;;;10406118;28;20125;-69
2022/08/10 00:16:36;;;;;;;1.08;0.90;;;20.80;81.30;;;;;;10404768;28;20116;-69
2022/08/10 00:21:37;;;;;;;1.13;1.02;;;20.80;81.40;;;;;;10406290;28;20026;-68
2022/08/10 00:26:38;;;;;;;1.55;1.00;;;20.80;81.40;;;;;;10405579;28;20124;-70
2022/08/10 00:31:38;;;;;;;1.50;1.13;;;20.70;81.40;;;;;;10405905;28;20078;-69
2022/08/10 00:36:39;;;;;;;1.30;1.20;;;20.70;81.40;;;;;;10405295;28;20121;-70
2022/08/10 00:41:40;;;;;;;1.50;1.20;;;20.70;81.50;;;;;;10405428;28;20030;-70
2022/08/10 00:46:41;;;;;;;1.48;1.20;;;20.70;81.50;;;;;;10405151;28;20117;-70
2022/08/10 00:51:41;;;;;;;1.25;1.00;;;20.70;81.60;;;;;;10405233;28;20018;-69
2022/08/10 00:56:42;;;;;;;1.17;1.08;;;20.60;81.50;;;;;;10404906;28;20017;-69
2022/08/10 01:01:43;;;;;;;1.52;1.20;;;20.60;81.60;;;;;;10403427;28;20022;-69
2022/08/10 01:07:04;;;;;;;1.33;1.17;;;20.60;81.60;;;;;;10404667;28;20073;-69
2022/08/10 01:12:10;;;;;;;1.38;1.20;;;20.60;81.70;;;;;;10404863;28;20113;-68
2022/08/10 01:17:45;;;;;;;1.55;1.20;;;20.50;81.70;;;;;;10403230;28;20020;-69
2022/08/10 01:23:35;;;;;;;1.83;1.30;;;20.50;81.70;;;;;;10426293;28;20057;-69
2022/08/10 01:28:56;;;;;;;1.40;1.30;;;20.50;81.80;;;;;;10406359;28;20037;-69
2022/08/10 01:34:03;;;;;;;2.53;1.30;;;20.40;81.80;;;;;;10411326;28;20030;-69
2022/08/10 01:39:06;;;;;;;1.77;1.25;;;20.40;81.80;;;;;;10411060;28;20041;-69
2022/08/10 01:44:15;;;;;;;2.55;1.40;;;20.40;81.80;;;;;;10410053;28;20037;-69
2022/08/10 01:49:19;;;;;;;2.38;1.63;;;20.40;81.90;;;;;;10410854;28;20025;-69
2022/08/10 01:54:21;;;;;;;1.60;1.38;;;20.40;81.90;;;;;;10410472;28;20025;-69
2022/08/10 01:59:37;;;;;;;1.75;1.45;;;20.30;81.90;;;;;;10410527;28;20114;-69
2022/08/10 02:04:44;;;;;;;1.50;1.40;;;20.30;82.00;;;;;;10409814;28;20114;-68
2022/08/10 02:09:51;;;;;;;2.22;1.58;;;20.30;82.00;;;;;;10409938;28;20025;-69
2022/08/10 02:14:57;;;;;;;2.13;1.42;;;20.30;82.10;;;;;;10409739;28;20078;-69
2022/08/10 02:20:06;;;;;;;1.48;1.38;;;20.20;82.10;;;;;;10409750;28;20034;-68
2022/08/10 02:25:08;;;;;;;3.85;1.90;;;20.20;82.20;;;;;;10409520;28;20397;-68
2022/08/10 02:30:11;;;;;;;1.65;1.50;;;20.20;82.20;;;;;;10409462;28;20110;-68
2022/08/10 02:35:13;;;;;;;2.25;1.50;;;20.20;82.30;;;;;;10409342;28;20029;-68
2022/08/10 02:40:14;;;;;;;2.13;1.73;;;20.20;82.30;;;;;;10408113;28;20486;-68
2022/08/10 02:45:21;;;;;;;1.95;1.65;;;20.10;82.30;;;;;;10408923;28;20122;-67
2022/08/10 02:50:27;;;;;;;1.70;1.50;;;20.10;82.40;;;;;;10408627;28;20022;-69
2022/08/10 02:55:47;;;;;;;1.80;1.65;;;20.10;82.50;;;;;;10408485;28;20112;-70
2022/08/10 03:00:53;;;;;;;2.15;1.55;;;20.10;82.60;;;;;;10408356;28;20060;-68
2022/08/10 03:06:02;;;;;;;2.08;1.80;;;20.00;82.50;;;;;;10408246;28;20057;-68
2022/08/10 03:11:05;;;;;;;2.28;1.90;;;20.00;82.60;;;;;;10407971;28;20018;-68
2022/08/10 03:16:08;;;;;;;1.92;1.73;;;20.00;82.60;;;;;;10408114;28;20125;-68
2022/08/10 03:21:11;;;;;;;2.83;1.70;;;20.00;82.70;;;;;;10408049;28;20381;-69
2022/08/10 03:26:12;;;;;;;2.03;1.60;;;19.90;82.70;;;;;;10407626;28;20069;-69
2022/08/10 03:31:14;;;;;;;1.63;1.50;;;19.90;82.70;;;;;;10407633;28;20512;-68
2022/08/10 03:36:14;;;;;;;2.65;1.58;;;19.90;82.80;;;;;;10407087;28;20037;-68
2022/08/10 03:41:17;;;;;;;2.30;1.70;;;19.90;82.90;;;;;;10407274;28;20033;-68
2022/08/10 03:46:22;;;;;;;2.38;1.70;;;19.90;82.90;;;;;;10405860;28;20120;-68
2022/08/10 03:51:25;;;;;;;3.72;1.90;;;19.90;83.00;;;;;;10406489;28;20022;-68
2022/08/10 03:56:26;;;;;;;3.38;1.80;;;19.80;83.00;;;;;;10406978;28;20037;-68
2022/08/10 04:01:28;;;;;;;2.70;1.85;;;19.80;83.00;;;;;;10406449;28;20079;-68
2022/08/10 04:06:29;;;;;;;2.55;1.70;;;19.80;83.10;;;;;;10406280;28;20089;-68
2022/08/10 04:11:31;;;;;;;3.08;1.95;;;19.80;83.10;;;;;;10406188;28;20024;-68
2022/08/10 04:16:31;;;;;;;3.15;1.98;;;19.70;83.70;;;;;;10405978;28;20115;-68
2022/08/10 04:21:41;;;;;;;2.05;1.42;;;19.80;83.20;;;;;;10405932;28;20032;-69
2022/08/10 04:26:42;;;;;;;2.22;1.98;;;19.70;83.30;;;;;;10405613;28;20102;-68
2022/08/10 04:31:45;;;;;;;2.25;1.90;;;19.70;83.30;;;;;;10405447;28;20506;-68
2022/08/10 04:36:48;;;;;;;1.92;1.67;;;19.70;83.40;;;;;;10405288;28;20022;-61
2022/08/10 04:41:49;;;;;;;2.28;1.85;;;19.70;83.40;;;;;;10404597;28;20104;-69
2022/08/10 04:46:50;;;;;;;4.80;2.33;;;19.60;83.40;;;;;;10394474;28;20477;-69
2022/08/10 04:51:51;;;;;;;2.10;1.85;;;19.60;83.50;;;;;;10393718;28;20028;-69
2022/08/10 04:56:52;;;;;;;3.10;1.80;;;19.60;83.50;;;;;;10394754;28;20033;-68
2022/08/10 05:01:52;;;;;;;7.90;2.10;;;19.60;83.70;;;;;;10394017;28;20385;-69
2022/08/10 05:06:53;;;;;;;2.30;1.85;;;19.60;83.80;;;;;;10402210;28;20029;-68
2022/08/10 05:11:54;;;;;;;3.72;1.95;;;19.60;83.90;;;;;;10401741;28;20022;-69
2022/08/10 05:16:55;;;;;;;3.08;2.10;;;19.50;83.90;;;;;;10401629;28;20022;-68
2022/08/10 05:21:56;;;;;;;2.38;1.88;;;19.50;83.90;;;;;;10401677;28;20095;-69
2022/08/10 05:26:56;;;;;;;2.45;1.80;;;19.50;83.90;;;;;;10401290;28;20095;-68
2022/08/10 05:31:58;;;;;;;4.45;2.20;;;19.60;84.00;;;;;;10401230;28;20079;-69
2022/08/10 05:36:59;;;;;;;2.17;1.88;;;19.60;84.00;;;;;;10400528;28;20422;-69
2022/08/10 05:42:00;;;;;;;3.53;2.10;;;19.60;84.10;;;;;;10400414;28;20425;-69
2022/08/10 05:47:01;;;;;;;3.00;2.22;;;19.60;84.10;;;;;;10400555;28;20022;-68
2022/08/10 05:52:02;;;;;;;3.08;2.00;;;19.60;84.10;;;;;;10382791;28;20125;-68
2022/08/10 05:57:03;;;;;;;2.22;1.83;;;19.60;84.20;;;;;;10400297;28;20018;-68
2022/08/10 06:02:05;;;;;;;3.67;2.00;;;19.60;84.20;;;;;;10399696;28;20045;-68
2022/08/10 06:07:07;;;;;;;2.38;2.00;;;19.60;84.20;;;;;;10400071;28;20095;-69
2022/08/10 06:12:10;;;;;;;8.40;4.45;;;19.60;84.20;;;;;;10399647;28;20026;-68
2022/08/10 06:17:11;;;;;;;8.18;4.80;;;19.40;86.00;;;;;;10398156;28;20109;-67
2022/08/10 06:22:13;;;;;;;8.80;4.80;;;18.90;89.00;;;;;;10382209;28;20037;-67
2022/08/10 06:27:13;;;;;;;9.00;5.00;;;18.50;91.00;;;;;;10399657;28;20536;-68
2022/08/10 06:32:16;;;;;;;7.80;4.15;;;18.50;91.60;;;;;;10399678;28;20111;-69
2022/08/10 06:37:19;;;;;;;6.38;4.25;;;18.50;92.10;;;;;;10398765;28;20029;-67
2022/08/10 06:42:34;;;;;;;6.68;4.50;;;18.50;92.40;;;;;;10398806;28;20037;-68
2022/08/10 06:47:55;;;;;;;9.32;4.57;;;18.50;92.90;;;;;;10398438;28;20120;-67
2022/08/10 06:52:58;;;;;;;8.57;5.18;;;18.50;93.50;;;;;;10398406;28;20473;-68
2022/08/10 06:58:00;;;;;;;8.73;4.50;;;18.50;93.40;;;;;;10398616;28;20346;-68
2022/08/10 07:03:05;;;;;;;11.13;4.78;;;18.50;93.60;;;;;;10398291;28;20137;-68
2022/08/10 07:08:08;;;;;;;5.88;3.95;;;18.50;94.10;;;;;;10398198;28;20021;-67
2022/08/10 07:13:11;;;;;;;6.68;3.40;;;18.50;94.20;;;;;;10397946;28;20118;-67
2022/08/10 07:18:13;;;;;;;7.47;3.28;;;18.70;93.90;;;;;;10396461;28;20029;-66
2022/08/10 07:23:16;;;;;;;5.47;3.08;;;18.90;93.60;;;;;;10394467;28;20033;-66
2022/08/10 07:28:18;;;;;;;5.32;2.60;;;19.00;93.40;;;;;;10395709;28;20030;-66
2022/08/10 07:33:21;;;;;;;4.10;2.45;;;19.00;93.10;;;;;;10396086;28;20042;-66
2022/08/10 07:38:30;;;;;;;3.03;1.92;;;19.30;92.90;;;;;;10394695;28;20598;-66
2022/08/10 07:43:34;;;;;;;2.92;1.80;;;19.40;92.80;;;;;;10396093;28;20029;-67
2022/08/10 07:48:43;;;;;;;4.20;2.25;;;19.40;92.50;;;;;;10395694;28;20122;-66
2022/08/10 07:53:45;;;;;;;;;;;19.60;92.60;;;;;;10395776;28;20079;-68
2022/08/10 07:58:55;;;;;;;3.33;2.15;;;19.60;93.10;;;;;;10395242;28;19905;-67
2022/08/10 08:03:59;;;;;;;4.40;2.22;;;19.60;92.30;;;;;;10394845;28;20049;-66
2022/08/10 08:09:02;;;;;;;2.70;2.15;;;19.60;92.10;;;;;;10394791;28;20501;-66
2022/08/10 08:14:07;;;;;;;3.30;2.33;;;19.70;92.10;;;;;;10395100;28;20057;-66
2022/08/10 08:19:09;;;;;;;2.30;1.90;;;19.70;92.10;;;;;;10395531;28;20450;-67
2022/08/10 08:24:14;;;;;;;4.28;2.30;;;19.80;92.00;;;;;;10395026;28;20489;-67
2022/08/10 08:29:15;;;;;;;4.32;2.40;;;19.90;92.00;;;;;;10394214;28;20123;-67
2022/08/10 08:34:18;;;;;;;2.58;2.03;;;19.90;92.10;;;;;;10394896;28;20026;-67
2022/08/10 08:39:19;;;;;;;3.80;2.50;;;20.00;92.00;;;;;;10376327;28;20057;-67
2022/08/10 08:44:37;;;;;;;3.97;2.25;;;20.00;92.00;;;;;;10394774;28;20192;-66
2022/08/10 08:49:51;;;;;;;3.45;1.83;;;20.10;92.30;;;;;;10393568;28;20065;-67
2022/08/10 08:54:55;;;;;;;3.00;2.30;;;20.10;92.10;;;;;;10394633;28;20041;-68
2022/08/10 09:00:08;;;;;;;3.70;2.13;;;20.20;92.10;;;;;;10394646;28;20073;-68
2022/08/10 09:05:15;;;;;;;2.10;1.90;;;20.30;91.90;;;;;;10394248;28;20056;-68
2022/08/10 09:10:50;;;;;;;4.63;2.15;;;20.30;92.00;;;;;;10394568;28;20515;-68
2022/08/10 09:16:04;;;;;;;2.70;1.95;;;20.30;92.20;;;;;;10394552;28;20108;-67
2022/08/10 09:21:16;;;;;;;3.13;1.90;;;20.40;91.80;;;;;;10393868;28;20053;-66
2022/08/10 09:26:24;;;;;;;2.60;1.90;;;20.50;91.80;;;;;;10393908;28;20041;-68
2022/08/10 09:31:32;;;;;;;3.35;2.00;;;20.50;91.70;;;;;;10375886;28;20038;-66
2022/08/10 09:36:51;;;;;;;4.22;2.17;;;20.60;91.70;;;;;;10393425;28;20073;-66
2022/08/10 09:42:29;;;;;;;2.65;1.92;;;20.60;91.70;;;;;;10393622;28;20033;-67
2022/08/10 09:47:33;;;;;;;2.65;1.73;;;20.60;91.70;;;;;;10393183;28;20477;-66
2022/08/10 09:53:02;;;;;;;1.85;1.70;;;20.70;91.40;;;;;;10399896;28;20030;-65
2022/08/10 09:58:17;;;;;;;2.25;1.73;;;20.80;91.40;;;;;;10399847;28;20413;-67
2022/08/10 10:03:41;;;;;;;2.28;2.05;;;20.90;91.10;;;;;;10399495;28;20500;-66
2022/08/10 10:08:45;;;;;;;4.78;1.73;;;20.90;91.00;;;;;;10399205;28;20013;-66
2022/08/10 10:14:14;;;;;;;2.70;1.80;;;21.00;90.90;;;;;;10399396;28;20093;-65
2022/08/10 10:19:51;;;;;;;3.22;1.50;;;21.10;90.80;;;;;;10398944;28;20029;-65
2022/08/10 10:25:02;;;;;;;1.73;1.50;;;21.10;90.50;;;;;;10398820;28;20063;-65
2022/08/10 10:30:06;;;;;;;3.05;1.73;;;21.20;90.40;;;;;;10399021;28;20118;-65
2022/08/10 10:35:25;;;;;;;3.88;1.52;;;21.20;90.30;;;;;;10399302;28;20449;-66
2022/08/10 10:40:31;;;;;;;3.47;1.70;;;21.30;90.00;;;;;;10398608;28;20353;-66
2022/08/10 10:45:52;;;;;;;2.50;1.70;;;21.40;89.90;;;;;;10398369;28;20091;-66
2022/08/10 10:51:02;;;;;;;1.65;1.55;;;21.50;89.80;;;;;;10398521;28;20086;-67
2022/08/10 10:56:23;;;;;;;3.17;1.67;;;21.50;89.40;;;;;;10398140;28;20021;-66
2022/08/10 11:01:43;;;;;;;2.00;1.67;;;21.70;89.00;;;;;;10395628;28;20029;-65
2022/08/10 11:07:00;;;;;;;2.42;1.48;;;21.70;88.60;;;;;;10397902;28;20451;-65
2022/08/10 11:12:13;;;;;;;1.95;1.60;;;21.80;88.20;;;;;;10397265;28;20025;-65
2022/08/10 11:17:21;;;;;;;1.77;1.40;;;21.80;88.10;;;;;;10397574;28;20048;-67
2022/08/10 11:22:56;;;;;;;1.90;1.50;;;21.90;87.70;;;;;;10397043;28;20025;-64
2022/08/10 11:28:36;;;;;;;1.48;1.27;;;22.00;87.20;;;;;;10396787;28;20042;-65
2022/08/10 11:33:45;;;;;;;2.80;1.70;;;22.00;86.40;;;;;;10395147;28;20526;-65
2022/08/10 11:39:08;;;;;;;2.17;1.48;;;22.10;86.70;;;;;;10396539;28;20033;-65
2022/08/10 11:44:20;;;;;;;1.70;1.40;;;22.20;86.30;;;;;;10396578;28;20090;-66
2022/08/10 11:49:53;;;;;;;2.10;1.45;;;22.30;86.30;;;;;;10396501;28;20041;-66
2022/08/10 11:54:57;;;;;;;1.73;1.30;;;22.40;85.80;;;;;;10416179;28;20030;-65
2022/08/10 11:59:59;;;;;;;1.75;1.30;;;22.40;85.70;;;;;;10394786;28;20078;-64
2022/08/10 12:05:02;;;;;;;1.58;1.35;;;22.50;85.20;;;;;;10395543;28;20057;-64
2022/08/10 12:10:03;;;;;;;4.53;1.40;;;22.60;84.90;;;;;;10395965;28;20026;-66
2022/08/10 12:15:14;;;;;;;3.35;2.03;;;22.70;84.80;;;;;;10395485;28;20454;-70
2022/08/10 12:20:23;;;;;;;1.50;1.33;;;22.70;84.10;;;;;;10395462;28;20081;-67
2022/08/10 12:25:35;;;;;;;3.97;1.48;;;22.80;84.10;;;;;;10395097;28;20174;-66
2022/08/10 12:30:40;;;;;;;4.35;1.55;;;22.90;83.70;;;;;;10395251;28;20033;-66
2022/08/10 12:36:00;;;;;;;1.90;1.35;;;22.90;83.40;;;;;;10394112;28;20418;-65
2022/08/10 12:41:08;;;;;;;2.30;1.20;;;23.00;83.10;;;;;;10394510;28;20056;-69
2022/08/10 12:46:30;;;;;;;1.10;1.00;;;23.10;82.90;;;;;;10394672;28;20041;-68
2022/08/10 12:51:34;;;;;;;4.40;1.33;;;23.30;82.90;;;;;;10394776;28;20037;-67
2022/08/10 12:56:39;;;;;;;1.92;1.17;;;23.40;82.70;;;;;;10394588;28;20074;-68
2022/08/10 13:01:43;;;;;;;1.80;1.30;;;23.50;82.80;;;;;;10394576;28;20091;-69
2022/08/10 13:06:48;;;;;;;2.70;1.30;;;23.50;82.90;;;;;;10392570;28;20053;-66
2022/08/10 13:12:04;;;;;;;3.47;1.40;;;23.70;82.30;;;;;;10393329;28;20116;-66
2022/08/10 13:17:07;;;;;;;1.50;1.40;;;23.80;82.30;;;;;;10394250;28;20449;-66
2022/08/10 13:22:10;;;;;;;1.40;1.15;;;23.80;82.40;;;;;;10393729;28;20035;-67
2022/08/10 13:27:15;;;;;;;1.20;1.10;;;23.90;82.50;;;;;;10400373;28;20564;-67
2022/08/10 13:32:24;;;;;;;3.50;1.25;;;24.00;82.50;;;;;;10400762;28;20489;-66
2022/08/10 13:37:29;;;;;;;1.95;1.40;;;24.00;82.20;;;;;;10400663;28;20130;-65
2022/08/10 13:42:35;;;;;;;1.90;1.15;;;24.20;82.50;;;;;;10400231;28;20109;-66
2022/08/10 13:47:37;;;;;;;2.40;1.08;;;24.20;82.30;;;;;;10400584;28;20023;-66
2022/08/10 13:52:40;;;;;;;1.58;1.38;;;24.20;82.30;;;;;;10400118;28;20026;-67
2022/08/10 13:57:47;;;;;;;1.77;1.20;;;24.40;82.40;;;;;;10399991;28;20049;-67
2022/08/10 14:03:11;;;;;;;1.80;1.27;;;24.50;82.00;;;;;;10399898;28;20050;-65
2022/08/10 14:08:16;;;;;;;2.80;1.20;;;24.70;82.00;;;;;;10400104;28;20066;-65
2022/08/10 14:13:19;;;;;;;3.80;1.15;;;24.80;82.10;;;;;;10382042;28;20020;-66
2022/08/10 14:18:20;;;;;;;1.50;1.10;;;24.90;81.80;;;;;;10399345;28;20040;-66
2022/08/10 14:23:21;;;;;;;1.77;1.15;;;25.10;81.80;;;;;;10399352;28;20052;-67
2022/08/10 14:28:35;;;;;;;1.92;1.08;;;25.20;81.80;;;;;;10400035;28;20129;-66
2022/08/10 14:33:38;;;;;;;3.20;1.20;;;25.30;81.60;;;;;;10400185;28;20087;-65
2022/08/10 14:38:43;;;;;;;1.35;1.25;;;25.40;81.50;;;;;;10398696;28;20487;-66
2022/08/10 14:43:54;;;;;;;1.80;1.05;;;25.60;81.30;;;;;;10399026;28;20025;-66
2022/08/10 14:48:57;;;;;;;2.05;1.10;;;25.70;81.20;;;;;;10398591;28;20098;-65
2022/08/10 14:54:03;;;;;;;1.20;1.02;;;25.80;80.90;;;;;;10398189;28;20125;-66
2022/08/10 14:59:05;;;;;;;1.38;0.98;;;25.80;80.80;;;;;;10398429;28;20456;-66
2022/08/10 15:04:11;;;;;;;3.22;1.40;;;26.00;80.90;;;;;;10397723;28;20509;-66
2022/08/10 15:09:15;;;;;;;1.23;1.13;;;26.10;80.70;;;;;;10396439;28;20529;-67
2022/08/10 15:14:16;;;;;;;2.30;1.20;;;26.20;80.70;;;;;;10396573;28;20053;-67
2022/08/10 15:19:22;;;;;;;1.30;1.08;;;26.40;80.70;;;;;;10397922;28;20021;-65
2022/08/10 15:29:53;;;;;;;1.45;1.30;;;26.50;80.20;;;;;;10397355;28;20091;-66
2022/08/10 15:40:17;;;;;;;1.20;1.10;;;26.80;80.10;;;;;;10396573;28;20053;-66
2022/08/10 15:45:18;;;;;;;1.50;1.13;;;26.90;79.90;;;;;;10396478;28;20045;-66
2022/08/10 15:50:27;;;;;;;2.90;1.42;;;26.90;79.70;;;;;;10397593;28;20116;-66
2022/08/10 15:55:45;;;;;;;1.70;1.42;;;27.10;79.40;;;;;;10396410;28;20033;-66
2022/08/10 16:00:54;;;;;;;3.67;1.95;;;27.10;79.30;;;;;;10396223;28;20041;-66
2022/08/10 16:05:57;;;;;;;1.90;1.60;;;27.20;79.30;;;;;;10520824;28;20039;-66
2022/08/10 16:11:04;;;;;;;2.13;1.33;;;27.20;79.20;;;;;;10526460;28;20396;-67
2022/08/10 16:16:08;;;;;;;5.32;1.83;;;27.20;79.40;;;;;;10526130;28;20067;-67
2022/08/10 16:21:17;;;;;;;2.25;1.63;;;27.10;79.20;;;;;;10524050;28;20158;-66
2022/08/10 16:26:24;;;;;;;2.28;1.65;;;27.00;76.90;;;;;;10525775;28;20103;-65
2022/08/10 16:31:28;;;;;;;2.85;1.48;;;26.80;73.50;;;;;;10525492;28;20020;-65
2022/08/10 16:36:44;;;;;;;4.68;1.30;;;26.80;73.20;;;;;;10525286;28;20028;-66
2022/08/10 16:41:46;;;;;;;1.90;1.67;;;26.70;72.20;;;;;;10525219;28;20482;-67
2022/08/10 16:46:47;;;;;;;5.15;1.80;;;26.70;71.40;;;;;;10525152;28;20032;-66
2022/08/10 16:51:50;;;;;;;2.03;1.50;;;26.60;70.80;;;;;;10525326;28;20027;-67
2022/08/10 16:56:52;;;;;;;3.60;1.65;;;26.60;70.50;;;;;;10524940;28;20043;-67
2022/08/10 17:01:53;;;;;;;3.58;1.40;;;26.50;70.80;;;;;;10522384;28;20108;-65
2022/08/10 17:06:59;;;;;;;4.05;1.98;;;26.40;70.20;;;;;;10402060;28;20103;-69
2022/08/10 17:12:12;;;;;;;1.58;1.25;;;26.40;69.70;;;;;;10401910;28;20101;-66
2022/08/10 17:17:28;;;;;;;3.30;1.50;;;26.40;68.80;;;;;;10401279;28;20095;-64
2022/08/10 17:22:34;;;;;;;2.30;1.57;;;26.40;67.40;;;;;;10401187;28;21140;-66
2022/08/10 17:27:38;;;;;;;1.65;1.50;;;26.40;68.80;;;;;;10400783;28;20026;-66
2022/08/10 17:32:54;;;;;;;2.78;1.70;;;26.30;69.00;;;;;;10399202;28;20097;-67
2022/08/10 17:38:11;;;;;;;2.58;1.45;;;26.30;69.00;;;;;;10400064;28;20061;-65
2022/08/10 17:43:20;;;;;;;2.45;1.70;;;26.20;68.60;;;;;;10400729;28;20032;-66
2022/08/10 17:48:26;;;;;;;1.63;1.52;;;26.10;69.00;;;;;;10400304;28;20026;-68
2022/08/10 17:53:38;;;;;;;3.80;1.50;;;26.00;69.10;;;;;;10399608;28;20100;-66
2022/08/10 17:58:44;;;;;;;1.70;1.60;;;26.00;69.40;;;;;;10399350;28;20113;-67
2022/08/10 18:03:53;;;;;;;2.30;1.33;;;25.90;69.50;;;;;;10399362;28;20111;-65
2022/08/10 18:09:01;;;;;;;3.47;1.60;;;25.80;69.50;;;;;;10398990;28;20026;-66
2022/08/10 18:14:05;;;;;;;2.70;1.50;;;25.70;69.50;;;;;;10398789;28;20094;-66
2022/08/10 18:19:10;;;;;;;2.30;1.70;;;25.60;69.70;;;;;;10400344;28;20029;-66
2022/08/10 18:24:15;;;;;;;3.17;1.73;;;25.50;69.90;;;;;;10398036;28;20113;-66
2022/08/10 18:29:19;;;;;;;3.38;1.40;;;25.40;69.90;;;;;;10398918;28;20108;-68
2022/08/10 18:34:22;;;;;;;1.90;1.67;;;25.40;70.20;;;;;;10400267;28;20038;-66
2022/08/10 18:39:34;;;;;;;1.90;1.42;;;25.20;71.70;;;;;;10400061;28;20583;-67
2022/08/10 18:44:41;;;;;;;4.80;1.80;;;25.10;73.90;;;;;;10400134;28;20047;-68
2022/08/10 18:49:58;;;;;;;4.00;1.77;;;24.90;74.90;;;;;;10399270;28;20509;-68
2022/08/10 18:55:11;;;;;;;1.77;1.53;;;24.80;75.80;;;;;;10400188;28;20044;-67
2022/08/10 19:00:18;;;;;;;2.95;2.00;;;24.60;76.80;;;;;;10399994;28;20506;-69
2022/08/10 19:05:50;;;;;;;3.83;2.15;;;24.50;77.80;;;;;;10398909;28;20049;-69
2022/08/10 19:10:55;;;;;;;2.15;1.90;;;24.40;79.20;;;;;;10399466;28;20018;-69
2022/08/10 19:16:06;;;;;;;6.43;2.20;;;24.20;79.00;;;;;;10399520;28;20030;-67
2022/08/10 19:21:15;;;;;;;4.47;2.10;;;24.20;79.90;;;;;;10398541;28;20504;-66
2022/08/10 19:26:38;;;;;;;3.72;2.00;;;24.00;80.80;;;;;;10398801;28;20454;-68
2022/08/10 19:31:48;;;;;;;2.92;2.35;;;23.90;80.60;;;;;;10398158;28;20411;-67
2022/08/10 19:36:53;;;;;;;4.68;2.47;;;23.70;80.90;;;;;;10397932;28;20627;-67
2022/08/10 19:42:14;;;;;;;3.88;2.30;;;23.60;81.40;;;;;;10397325;28;20021;-68
2022/08/10 19:47:34;;;;;;;6.53;2.00;;;23.50;82.50;;;;;;10405139;28;20400;-65
2022/08/10 19:52:48;;;;;;;4.95;2.38;;;23.30;83.50;;;;;;10407376;28;20026;-66
2022/08/10 19:57:59;;;;;;;5.25;2.30;;;23.20;83.70;;;;;;10406774;28;20056;-66
2022/08/10 20:03:14;;;;;;;4.40;2.35;;;23.10;83.50;;;;;;10405836;28;20034;-66
2022/08/10 20:08:27;;;;;;;3.95;1.92;;;23.00;84.90;;;;;;10406381;28;20109;-66
2022/08/10 20:13:42;;;;;;;3.72;2.00;;;22.90;85.00;;;;;;10406440;28;20509;-67
2022/08/10 20:18:58;;;;;;;2.25;1.80;;;22.80;85.60;;;;;;10405927;28;20033;-66
2022/08/10 20:24:07;;;;;;;3.40;1.75;;;23.00;85.00;;;;;;10405929;28;20449;-66
2022/08/10 20:29:14;;;;;;;3.60;1.92;;;23.20;84.20;;;;;;10406017;28;20040;-66
2022/08/10 20:34:25;;;;;;;5.15;1.92;;;23.40;83.90;;;;;;10404687;28;20037;-66
2022/08/10 20:39:40;;;;;;;2.90;1.60;;;23.60;83.60;;;;;;10405290;28;20063;-66
2022/08/10 20:45:00;;;;;;;2.22;1.60;;;23.60;83.20;;;;;;10405106;28;20040;-67
2022/08/10 20:50:28;;;;;;;2.67;1.65;;;23.70;83.10;;;;;;10405671;28;20032;-66
2022/08/10 20:55:35;;;;;;;;;;;23.80;82.80;;;;;;10405278;28;20397;-66
2022/08/10 21:00:48;;;;;;;3.03;1.85;;;23.80;83.10;;;;;;10405108;28;20253;-67
2022/08/10 21:05:57;;;;;;;2.35;1.70;;;23.80;82.50;;;;;;10404903;28;20452;-65
2022/08/10 21:11:14;;;;;;;1.55;1.45;;;23.80;82.60;;;;;;10404595;28;20021;-67
2022/08/10 21:16:37;;;;;;;2.33;1.75;;;23.80;82.50;;;;;;10404645;28;20045;-67
2022/08/10 21:21:52;;;;;;;2.15;1.77;;;23.80;82.50;;;;;;10403874;28;20470;-68
2022/08/10 23:00:20;;;;;;;3.28;1.50;;;23.20;83.00;;;;;;10407524;28;20429;-68
2022/08/10 23:05:32;;;;;;;3.83;1.80;;;23.20;83.10;;;;;;10407981;28;20053;-68
2022/08/10 23:10:38;;;;;;;2.40;1.70;;;23.20;83.10;;;;;;10409086;28;20087;-69
2022/08/10 23:21:27;;;;;;;3.35;1.73;;;23.10;83.20;;;;;;10407910;28;20029;-68
2022/08/10 23:26:32;;;;;;;3.28;1.60;;;23.10;83.20;;;;;;10407647;28;20397;-68
2022/08/10 23:31:33;;;;;;;2.03;1.70;;;23.00;83.20;;;;;;10407728;28;20469;-68
2022/08/10 23:36:37;;;;;;;4.22;1.98;;;23.00;83.20;;;;;;10407332;28;20093;-68
2022/08/10 23:41:39;;;;;;;1.90;1.45;;;23.00;83.30;;;;;;10407223;28;20104;-68
2022/08/10 23:46:41;;;;;;;3.65;1.73;;;22.90;83.30;;;;;;10407416;28;20044;-68
2022/08/10 23:51:46;;;;;;;2.03;1.50;;;22.90;83.30;;;;;;10407145;28;20022;-68
2022/08/10 23:56:51;;;;;;;2.40;1.70;;;22.90;83.40;;;;;;10407080;28;20033;-68
